PWSweather.com
Personal Weather Stations
Station Observations
SD92115WX
El Cerrito Stoneybluff, San Diego, CA 92115

El Cerrito StoneybluffSan Diego, CA 92115

Lat: 32.754096, Lon: -117.066705

Elevation: 420

Station Type: Davis Vantage Vue

http://stoneybluff.com

High Low Average
Temperature 75.9°F24.4°C 64.2°F17.9°C 69.1°F20.6°C
Dew Point 63.1°F17.3°C 60.3°F15.7°C 61.6°F16.4°C
Winds 10.1 mph 16.3 kmh Calm Calm 3.0 mph SSW4.8 kmh SSW
Wind Gusts 18.1 mph29.1 kmh -- 7.0 mph11.3 kmh
Humidity 90% 61% 78%
Pressure 29.84 in1010.5 mb 29.76 in1007.8 mb -
Precipitation 0.00 in0.0 mm - -
Hour Temp Dew Point Humidity Winds Wind Gusts Pressure Precip Precip Rate Daily Precip Total
12:02 AM 64.2°F17.9°C 61.0°F16.1°C 89% Calm Calm -- 29.76 in1007.8 mb 0.00 in0.0 mm 0.00 in0.0 mm 0.00 in0.0 mm
12:07 AM 64.2°F17.9°C 61.0°F16.1°C 89% Calm Calm -- 29.77 in1008.1 mb 0.00 in0.0 mm 0.00 in0.0 mm 0.00 in0.0 mm
12:12 AM 64.2°F17.9°C 61.0°F16.1°C 89% Calm Calm -- 29.76 in1007.8 mb 0.00 in0.0 mm 0.00 in0.0 mm 0.00 in0.0 mm
12:17 AM 64.2°F17.9°C 61.0°F16.1°C 89% Calm Calm -- 29.76 in1007.8 mb 0.00 in0.0 mm 0.00 in0.0 mm 0.00 in0.0 mm
12:22 AM 64.4°F18.0°C 61.3°F16.3°C 90% Calm Calm -- 29.76 in1007.8 mb 0.00 in0.0 mm 0.00 in0.0 mm 0.00 in0.0 mm
12:27 AM 64.8°F18.2°C 61.7°F16.5°C 90% Calm Calm 1.1 mph1.8 kmh 29.76 in1007.8 mb 0.00 in0.0 mm 0.00 in0.0 mm 0.00 in0.0 mm
12:32 AM 64.9°F18.3°C 61.7°F16.5°C 89% Calm Calm 2.0 mph3.2 kmh 29.76 in1007.8 mb 0.00 in0.0 mm 0.00 in0.0 mm 0.00 in0.0 mm
12:37 AM 64.9°F18.3°C 61.7°F16.5°C 89% 0.2 mph SSW0.3 kmh SSW 2.0 mph3.2 kmh 29.76 in1007.8 mb 0.00 in0.0 mm 0.00 in0.0 mm 0.00 in0.0 mm
12:42 AM 65.1°F18.4°C 61.9°F16.6°C 89% 1.1 mph SSW1.8 kmh SSW 3.1 mph5.0 kmh 29.76 in1007.8 mb 0.00 in0.0 mm 0.00 in0.0 mm 0.00 in0.0 mm
12:47 AM 65.1°F18.4°C 61.5°F16.4°C 88% Calm Calm 2.0 mph3.2 kmh 29.76 in1007.8 mb 0.00 in0.0 mm 0.00 in0.0 mm 0.00 in0.0 mm
12:52 AM 65.3°F18.5°C 61.7°F16.5°C 88% 0.9 mph SSW1.4 kmh SSW 3.1 mph5.0 kmh 29.76 in1007.8 mb 0.00 in0.0 mm 0.00 in0.0 mm 0.00 in0.0 mm
12:57 AM 65.5°F18.6°C 61.9°F16.6°C 88% 0.9 mph SSW1.4 kmh SSW 3.1 mph5.0 kmh 29.76 in1007.8 mb 0.00 in0.0 mm 0.00 in0.0 mm 0.00 in0.0 mm
01:02 AM 65.5°F18.6°C 61.9°F16.6°C 88% 0.4 mph S0.6 kmh S 2.0 mph3.2 kmh 29.76 in1007.8 mb 0.00 in0.0 mm 0.00 in0.0 mm 0.00 in0.0 mm
01:07 AM 65.7°F18.7°C 61.7°F16.5°C 87% 0.4 mph SE0.6 kmh SE 4.3 mph6.9 kmh 29.76 in1007.8 mb 0.00 in0.0 mm 0.00 in0.0 mm 0.00 in0.0 mm
01:12 AM 65.7°F18.7°C 61.7°F16.5°C 87% 0.2 mph SSE0.3 kmh SSE 2.0 mph3.2 kmh 29.76 in1007.8 mb 0.00 in0.0 mm 0.00 in0.0 mm 0.00 in0.0 mm
01:17 AM 65.8°F18.8°C 61.9°F16.6°C 87% 0.7 mph SE1.1 kmh SE 2.0 mph3.2 kmh 29.76 in1007.8 mb 0.00 in0.0 mm 0.00 in0.0 mm 0.00 in0.0 mm
01:22 AM 65.8°F18.8°C 61.5°F16.4°C 86% 0.7 mph S1.1 kmh S 3.1 mph5.0 kmh 29.76 in1007.8 mb 0.00 in0.0 mm 0.00 in0.0 mm 0.00 in0.0 mm
01:27 AM 65.8°F18.8°C 61.5°F16.4°C 86% 1.3 mph S2.1 kmh S 3.1 mph5.0 kmh 29.76 in1007.8 mb 0.00 in0.0 mm 0.00 in0.0 mm 0.00 in0.0 mm
01:32 AM 66.0°F18.9°C 61.7°F16.5°C 86% 1.8 mph S2.9 kmh S 5.4 mph8.7 kmh 29.76 in1007.8 mb 0.00 in0.0 mm 0.00 in0.0 mm 0.00 in0.0 mm
01:37 AM 66.0°F18.9°C 61.7°F16.5°C 86% 2.0 mph S3.2 kmh S 5.4 mph8.7 kmh 29.76 in1007.8 mb 0.00 in0.0 mm 0.00 in0.0 mm 0.00 in0.0 mm
01:42 AM 66.0°F18.9°C 61.3°F16.3°C 85% 3.1 mph SSW5.0 kmh SSW 7.4 mph11.9 kmh 29.76 in1007.8 mb 0.00 in0.0 mm 0.00 in0.0 mm 0.00 in0.0 mm
01:47 AM 66.0°F18.9°C 61.3°F16.3°C 85% 2.2 mph SW3.5 kmh SW 5.4 mph8.7 kmh 29.76 in1007.8 mb 0.00 in0.0 mm 0.00 in0.0 mm 0.00 in0.0 mm
01:52 AM 66.0°F18.9°C 61.3°F16.3°C 85% 0.4 mph SE0.6 kmh SE 4.3 mph6.9 kmh 29.76 in1007.8 mb 0.00 in0.0 mm 0.00 in0.0 mm 0.00 in0.0 mm
01:57 AM 66.0°F18.9°C 61.3°F16.3°C 85% 0.4 mph S0.6 kmh S 3.1 mph5.0 kmh 29.76 in1007.8 mb 0.00 in0.0 mm 0.00 in0.0 mm 0.00 in0.0 mm
02:02 AM 66.0°F18.9°C 61.3°F16.3°C 85% 0.2 mph SE0.3 kmh SE 3.1 mph5.0 kmh 29.76 in1007.8 mb 0.00 in0.0 mm 0.00 in0.0 mm 0.00 in0.0 mm
02:07 AM 66.2°F19.0°C 61.5°F16.4°C 85% 0.2 mph SW0.3 kmh SW 3.1 mph5.0 kmh 29.76 in1007.8 mb 0.00 in0.0 mm 0.00 in0.0 mm 0.00 in0.0 mm
02:12 AM 66.2°F19.0°C 61.5°F16.4°C 85% 0.4 mph SSE0.6 kmh SSE 3.1 mph5.0 kmh 29.77 in1008.1 mb 0.00 in0.0 mm 0.00 in0.0 mm 0.00 in0.0 mm
02:17 AM 66.4°F19.1°C 61.7°F16.5°C 85% 0.4 mph SSE0.6 kmh SSE 3.1 mph5.0 kmh 29.76 in1007.8 mb 0.00 in0.0 mm 0.00 in0.0 mm 0.00 in0.0 mm
02:22 AM 66.4°F19.1°C 61.7°F16.5°C 85% 0.4 mph SE0.6 kmh SE 3.1 mph5.0 kmh 29.76 in1007.8 mb 0.00 in0.0 mm 0.00 in0.0 mm 0.00 in0.0 mm
02:27 AM 66.4°F19.1°C 61.3°F16.3°C 84% 3.4 mph SSE5.5 kmh SSE 5.4 mph8.7 kmh 29.76 in1007.8 mb 0.00 in0.0 mm 0.00 in0.0 mm 0.00 in0.0 mm
02:32 AM 66.4°F19.1°C 61.3°F16.3°C 84% 1.3 mph SSE2.1 kmh SSE 5.4 mph8.7 kmh 29.77 in1008.1 mb 0.00 in0.0 mm 0.00 in0.0 mm 0.00 in0.0 mm
02:37 AM 66.4°F19.1°C 61.3°F16.3°C 84% 3.1 mph SW5.0 kmh SW 5.4 mph8.7 kmh 29.76 in1007.8 mb 0.00 in0.0 mm 0.00 in0.0 mm 0.00 in0.0 mm
02:42 AM 66.4°F19.1°C 61.3°F16.3°C 84% 1.3 mph SE2.1 kmh SE 6.3 mph10.1 kmh 29.77 in1008.1 mb 0.00 in0.0 mm 0.00 in0.0 mm 0.00 in0.0 mm
02:47 AM 66.4°F19.1°C 61.3°F16.3°C 84% 2.9 mph SE4.7 kmh SE 5.4 mph8.7 kmh 29.77 in1008.1 mb 0.00 in0.0 mm 0.00 in0.0 mm 0.00 in0.0 mm
02:52 AM 66.2°F19.0°C 61.2°F16.2°C 84% 2.9 mph SSE4.7 kmh SSE 6.3 mph10.1 kmh 29.77 in1008.1 mb 0.00 in0.0 mm 0.00 in0.0 mm 0.00 in0.0 mm
02:57 AM 66.2°F19.0°C 61.2°F16.2°C 84% 2.7 mph SW4.3 kmh SW 6.3 mph10.1 kmh 29.77 in1008.1 mb 0.00 in0.0 mm 0.00 in0.0 mm 0.00 in0.0 mm
03:02 AM 66.2°F19.0°C 61.2°F16.2°C 84% 1.1 mph SE1.8 kmh SE 3.1 mph5.0 kmh 29.77 in1008.1 mb 0.00 in0.0 mm 0.00 in0.0 mm 0.00 in0.0 mm
03:07 AM 66.2°F19.0°C 61.2°F16.2°C 84% Calm Calm 2.0 mph3.2 kmh 29.77 in1008.1 mb 0.00 in0.0 mm 0.00 in0.0 mm 0.00 in0.0 mm
03:12 AM 66.2°F19.0°C 61.2°F16.2°C 84% 2.2 mph SSE3.5 kmh SSE 5.4 mph8.7 kmh 29.77 in1008.1 mb 0.00 in0.0 mm 0.00 in0.0 mm 0.00 in0.0 mm
03:17 AM 66.2°F19.0°C 61.2°F16.2°C 84% 2.0 mph SE3.2 kmh SE 5.4 mph8.7 kmh 29.77 in1008.1 mb 0.00 in0.0 mm 0.00 in0.0 mm 0.00 in0.0 mm
03:22 AM 66.2°F19.0°C 61.2°F16.2°C 84% 3.4 mph SSE5.5 kmh SSE 5.4 mph8.7 kmh 29.76 in1007.8 mb 0.00 in0.0 mm 0.00 in0.0 mm 0.00 in0.0 mm
03:27 AM 66.2°F19.0°C 61.2°F16.2°C 84% 2.2 mph SSE3.5 kmh SSE 5.4 mph8.7 kmh 29.76 in1007.8 mb 0.00 in0.0 mm 0.00 in0.0 mm 0.00 in0.0 mm
03:32 AM 66.0°F18.9°C 61.0°F16.1°C 84% 2.5 mph SE4.0 kmh SE 5.4 mph8.7 kmh 29.76 in1007.8 mb 0.00 in0.0 mm 0.00 in0.0 mm 0.00 in0.0 mm
03:37 AM 66.0°F18.9°C 60.6°F15.9°C 83% 3.8 mph SE6.1 kmh SE 9.6 mph15.4 kmh 29.76 in1007.8 mb 0.00 in0.0 mm 0.00 in0.0 mm 0.00 in0.0 mm
03:42 AM 65.8°F18.8°C 60.8°F16.0°C 84% 2.2 mph SW3.5 kmh SW 7.4 mph11.9 kmh 29.77 in1008.1 mb 0.00 in0.0 mm 0.00 in0.0 mm 0.00 in0.0 mm
03:47 AM 65.8°F18.8°C 60.8°F16.0°C 84% Calm Calm 5.4 mph8.7 kmh 29.77 in1008.1 mb 0.00 in0.0 mm 0.00 in0.0 mm 0.00 in0.0 mm
03:52 AM 65.8°F18.8°C 60.8°F16.0°C 84% 2.5 mph S4.0 kmh S 6.3 mph10.1 kmh 29.78 in1008.5 mb 0.00 in0.0 mm 0.00 in0.0 mm 0.00 in0.0 mm
03:57 AM 65.7°F18.7°C 60.6°F15.9°C 84% 4.5 mph SW7.2 kmh SW 7.4 mph11.9 kmh 29.78 in1008.5 mb 0.00 in0.0 mm 0.00 in0.0 mm 0.00 in0.0 mm
04:02 AM 65.7°F18.7°C 60.6°F15.9°C 84% 1.8 mph S2.9 kmh S 7.4 mph11.9 kmh 29.78 in1008.5 mb 0.00 in0.0 mm 0.00 in0.0 mm 0.00 in0.0 mm
04:07 AM 65.7°F18.7°C 60.6°F15.9°C 84% 2.9 mph SE4.7 kmh SE 6.3 mph10.1 kmh 29.78 in1008.5 mb 0.00 in0.0 mm 0.00 in0.0 mm 0.00 in0.0 mm
04:12 AM 65.7°F18.7°C 60.6°F15.9°C 84% 2.7 mph SW4.3 kmh SW 6.3 mph10.1 kmh 29.78 in1008.5 mb 0.00 in0.0 mm 0.00 in0.0 mm 0.00 in0.0 mm
04:17 AM 65.5°F18.6°C 60.4°F15.8°C 84% 3.6 mph SE5.8 kmh SE 7.4 mph11.9 kmh 29.79 in1008.8 mb 0.00 in0.0 mm 0.00 in0.0 mm 0.00 in0.0 mm
04:22 AM 65.5°F18.6°C 60.4°F15.8°C 84% 2.7 mph SW4.3 kmh SW 7.4 mph11.9 kmh 29.79 in1008.8 mb 0.00 in0.0 mm 0.00 in0.0 mm 0.00 in0.0 mm
04:27 AM 65.5°F18.6°C 60.4°F15.8°C 84% 2.5 mph S4.0 kmh S 5.4 mph8.7 kmh 29.78 in1008.5 mb 0.00 in0.0 mm 0.00 in0.0 mm 0.00 in0.0 mm
04:32 AM 65.5°F18.6°C 60.4°F15.8°C 84% 0.9 mph ENE1.4 kmh ENE 7.4 mph11.9 kmh 29.79 in1008.8 mb 0.00 in0.0 mm 0.00 in0.0 mm 0.00 in0.0 mm
04:37 AM 65.3°F18.5°C 60.3°F15.7°C 84% 0.2 mph SSE0.3 kmh SSE 4.3 mph6.9 kmh 29.79 in1008.8 mb 0.00 in0.0 mm 0.00 in0.0 mm 0.00 in0.0 mm
04:42 AM 65.5°F18.6°C 60.4°F15.8°C 84% 0.4 mph E0.6 kmh E 4.3 mph6.9 kmh 29.79 in1008.8 mb 0.00 in0.0 mm 0.00 in0.0 mm 0.00 in0.0 mm
04:47 AM 65.5°F18.6°C 60.4°F15.8°C 84% 2.5 mph SSE4.0 kmh SSE 4.3 mph6.9 kmh 29.79 in1008.8 mb 0.00 in0.0 mm 0.00 in0.0 mm 0.00 in0.0 mm
04:52 AM 65.5°F18.6°C 60.4°F15.8°C 84% 1.6 mph SSW2.6 kmh SSW 4.3 mph6.9 kmh 29.79 in1008.8 mb 0.00 in0.0 mm 0.00 in0.0 mm 0.00 in0.0 mm
04:57 AM 65.5°F18.6°C 60.8°F16.0°C 85% 1.1 mph S1.8 kmh S 4.3 mph6.9 kmh 29.79 in1008.8 mb 0.00 in0.0 mm 0.00 in0.0 mm 0.00 in0.0 mm
05:02 AM 65.5°F18.6°C 60.8°F16.0°C 85% 0.4 mph SW0.6 kmh SW 3.1 mph5.0 kmh 29.79 in1008.8 mb 0.00 in0.0 mm 0.00 in0.0 mm 0.00 in0.0 mm
05:07 AM 65.5°F18.6°C 60.8°F16.0°C 85% 0.7 mph SSW1.1 kmh SSW 3.1 mph5.0 kmh 29.79 in1008.8 mb 0.00 in0.0 mm 0.00 in0.0 mm 0.00 in0.0 mm
05:12 AM 65.5°F18.6°C 60.4°F15.8°C 84% 0.4 mph SE0.6 kmh SE 3.1 mph5.0 kmh 29.79 in1008.8 mb 0.00 in0.0 mm 0.00 in0.0 mm 0.00 in0.0 mm
05:17 AM 65.5°F18.6°C 60.8°F16.0°C 85% 0.4 mph SE0.6 kmh SE 2.0 mph3.2 kmh 29.79 in1008.8 mb 0.00 in0.0 mm 0.00 in0.0 mm 0.00 in0.0 mm
05:22 AM 65.5°F18.6°C 60.8°F16.0°C 85% 0.4 mph SSW0.6 kmh SSW 2.0 mph3.2 kmh 29.80 in1009.1 mb 0.00 in0.0 mm 0.00 in0.0 mm 0.00 in0.0 mm
05:27 AM 65.5°F18.6°C 60.4°F15.8°C 84% 1.8 mph SW2.9 kmh SW 6.3 mph10.1 kmh 29.80 in1009.1 mb 0.00 in0.0 mm 0.00 in0.0 mm 0.00 in0.0 mm
05:32 AM 65.5°F18.6°C 60.4°F15.8°C 84% 2.7 mph SSW4.3 kmh SSW 4.3 mph6.9 kmh 29.80 in1009.1 mb 0.00 in0.0 mm 0.00 in0.0 mm 0.00 in0.0 mm
05:37 AM 65.7°F18.7°C 60.6°F15.9°C 84% 0.4 mph SW0.6 kmh SW 3.1 mph5.0 kmh 29.80 in1009.1 mb 0.00 in0.0 mm 0.00 in0.0 mm 0.00 in0.0 mm
05:42 AM 65.7°F18.7°C 60.6°F15.9°C 84% Calm Calm 1.1 mph1.8 kmh 29.80 in1009.1 mb 0.00 in0.0 mm 0.00 in0.0 mm 0.00 in0.0 mm
05:47 AM 65.7°F18.7°C 60.6°F15.9°C 84% Calm Calm 2.0 mph3.2 kmh 29.80 in1009.1 mb 0.00 in0.0 mm 0.00 in0.0 mm 0.00 in0.0 mm
05:52 AM 65.7°F18.7°C 60.6°F15.9°C 84% 1.8 mph SSW2.9 kmh SSW 4.3 mph6.9 kmh 29.80 in1009.1 mb 0.00 in0.0 mm 0.00 in0.0 mm 0.00 in0.0 mm
05:57 AM 65.7°F18.7°C 60.6°F15.9°C 84% 0.7 mph SSE1.1 kmh SSE 3.1 mph5.0 kmh 29.80 in1009.1 mb 0.00 in0.0 mm 0.00 in0.0 mm 0.00 in0.0 mm
06:02 AM 65.7°F18.7°C 60.6°F15.9°C 84% Calm Calm 3.1 mph5.0 kmh 29.80 in1009.1 mb 0.00 in0.0 mm 0.00 in0.0 mm 0.00 in0.0 mm
06:07 AM 65.7°F18.7°C 60.6°F15.9°C 84% 0.9 mph SSE1.4 kmh SSE 3.1 mph5.0 kmh 29.80 in1009.1 mb 0.00 in0.0 mm 0.00 in0.0 mm 0.00 in0.0 mm
06:12 AM 65.8°F18.8°C 60.8°F16.0°C 84% Calm Calm 2.0 mph3.2 kmh 29.81 in1009.5 mb 0.00 in0.0 mm 0.00 in0.0 mm 0.00 in0.0 mm
06:17 AM 65.8°F18.8°C 60.6°F15.9°C 83% 0.2 mph S0.3 kmh S 1.1 mph1.8 kmh 29.81 in1009.5 mb 0.00 in0.0 mm 0.00 in0.0 mm 0.00 in0.0 mm
06:22 AM 65.8°F18.8°C 60.6°F15.9°C 83% 0.4 mph SW0.6 kmh SW 4.3 mph6.9 kmh 29.81 in1009.5 mb 0.00 in0.0 mm 0.00 in0.0 mm 0.00 in0.0 mm
06:27 AM 66.0°F18.9°C 60.6°F15.9°C 83% 2.0 mph SSE3.2 kmh SSE 4.3 mph6.9 kmh 29.81 in1009.5 mb 0.00 in0.0 mm 0.00 in0.0 mm 0.00 in0.0 mm
06:32 AM 66.0°F18.9°C 60.6°F15.9°C 83% 1.3 mph S2.1 kmh S 3.1 mph5.0 kmh 29.81 in1009.5 mb 0.00 in0.0 mm 0.00 in0.0 mm 0.00 in0.0 mm
06:37 AM 66.0°F18.9°C 60.6°F15.9°C 83% 2.0 mph SW3.2 kmh SW 4.3 mph6.9 kmh 29.81 in1009.5 mb 0.00 in0.0 mm 0.00 in0.0 mm 0.00 in0.0 mm
06:42 AM 66.0°F18.9°C 60.6°F15.9°C 83% 0.9 mph S1.4 kmh S 3.1 mph5.0 kmh 29.81 in1009.5 mb 0.00 in0.0 mm 0.00 in0.0 mm 0.00 in0.0 mm
06:47 AM 66.0°F18.9°C 60.6°F15.9°C 83% 0.2 mph SW0.3 kmh SW 2.0 mph3.2 kmh 29.81 in1009.5 mb 0.00 in0.0 mm 0.00 in0.0 mm 0.00 in0.0 mm
06:52 AM 66.0°F18.9°C 60.6°F15.9°C 83% 1.6 mph SW2.6 kmh SW 4.3 mph6.9 kmh 29.81 in1009.5 mb 0.00 in0.0 mm 0.00 in0.0 mm 0.00 in0.0 mm
06:57 AM 66.2°F19.0°C 60.6°F15.9°C 82% 0.9 mph SSE1.4 kmh SSE 3.1 mph5.0 kmh 29.81 in1009.5 mb 0.00 in0.0 mm 0.00 in0.0 mm 0.00 in0.0 mm
07:02 AM 66.4°F19.1°C 60.8°F16.0°C 82% Calm Calm -- 29.82 in1009.8 mb 0.00 in0.0 mm 0.00 in0.0 mm 0.00 in0.0 mm
07:07 AM 66.4°F19.1°C 60.8°F16.0°C 82% 1.8 mph SW2.9 kmh SW 5.4 mph8.7 kmh 29.81 in1009.5 mb 0.00 in0.0 mm 0.00 in0.0 mm 0.00 in0.0 mm
07:12 AM 66.4°F19.1°C 60.8°F16.0°C 82% 0.9 mph SSW1.4 kmh SSW 2.0 mph3.2 kmh 29.81 in1009.5 mb 0.00 in0.0 mm 0.00 in0.0 mm 0.00 in0.0 mm
07:17 AM 66.6°F19.2°C 61.0°F16.1°C 82% 1.1 mph S1.8 kmh S 3.1 mph5.0 kmh 29.82 in1009.8 mb 0.00 in0.0 mm 0.00 in0.0 mm 0.00 in0.0 mm
07:22 AM 66.6°F19.2°C 60.6°F15.9°C 81% 0.9 mph SW1.4 kmh SW 4.3 mph6.9 kmh 29.82 in1009.8 mb 0.00 in0.0 mm 0.00 in0.0 mm 0.00 in0.0 mm
07:27 AM 66.7°F19.3°C 60.8°F16.0°C 81% Calm Calm -- 29.82 in1009.8 mb 0.00 in0.0 mm 0.00 in0.0 mm 0.00 in0.0 mm
07:32 AM 66.7°F19.3°C 60.8°F16.0°C 81% Calm Calm 2.0 mph3.2 kmh 29.82 in1009.8 mb 0.00 in0.0 mm 0.00 in0.0 mm 0.00 in0.0 mm
07:37 AM 66.9°F19.4°C 61.0°F16.1°C 81% Calm Calm -- 29.82 in1009.8 mb 0.00 in0.0 mm 0.00 in0.0 mm 0.00 in0.0 mm
07:42 AM 67.1°F19.5°C 60.8°F16.0°C 80% Calm Calm -- 29.82 in1009.8 mb 0.00 in0.0 mm 0.00 in0.0 mm 0.00 in0.0 mm
07:47 AM 67.1°F19.5°C 60.8°F16.0°C 80% Calm Calm 1.1 mph1.8 kmh 29.82 in1009.8 mb 0.00 in0.0 mm 0.00 in0.0 mm 0.00 in0.0 mm
07:52 AM 67.3°F19.6°C 61.0°F16.1°C 80% 0.4 mph SW0.6 kmh SW 2.0 mph3.2 kmh 29.82 in1009.8 mb 0.00 in0.0 mm 0.00 in0.0 mm 0.00 in0.0 mm
07:57 AM 67.3°F19.6°C 60.6°F15.9°C 79% Calm Calm 2.0 mph3.2 kmh 29.82 in1009.8 mb 0.00 in0.0 mm 0.00 in0.0 mm 0.00 in0.0 mm
08:02 AM 67.5°F19.7°C 60.8°F16.0°C 79% Calm Calm -- 29.82 in1009.8 mb 0.00 in0.0 mm 0.00 in0.0 mm 0.00 in0.0 mm
08:07 AM 67.6°F19.8°C 61.0°F16.1°C 79% 1.8 mph SSW2.9 kmh SSW 3.1 mph5.0 kmh 29.82 in1009.8 mb 0.00 in0.0 mm 0.00 in0.0 mm 0.00 in0.0 mm
08:12 AM 67.8°F19.9°C 60.6°F15.9°C 78% Calm Calm 3.1 mph5.0 kmh 29.82 in1009.8 mb 0.00 in0.0 mm 0.00 in0.0 mm 0.00 in0.0 mm
08:17 AM 68.2°F20.1°C 61.0°F16.1°C 78% Calm Calm 1.1 mph1.8 kmh 29.82 in1009.8 mb 0.00 in0.0 mm 0.00 in0.0 mm 0.00 in0.0 mm
08:22 AM 68.2°F20.1°C 60.6°F15.9°C 77% Calm Calm 2.0 mph3.2 kmh 29.82 in1009.8 mb 0.00 in0.0 mm 0.00 in0.0 mm 0.00 in0.0 mm
08:27 AM 68.2°F20.1°C 60.6°F15.9°C 77% 0.9 mph WSW1.4 kmh WSW 2.0 mph3.2 kmh 29.81 in1009.5 mb 0.00 in0.0 mm 0.00 in0.0 mm 0.00 in0.0 mm
08:32 AM 68.4°F20.2°C 60.8°F16.0°C 77% 0.4 mph S0.6 kmh S 2.0 mph3.2 kmh 29.81 in1009.5 mb 0.00 in0.0 mm 0.00 in0.0 mm 0.00 in0.0 mm
08:38 AM 68.7°F20.4°C 61.2°F16.2°C 77% Calm Calm 2.0 mph3.2 kmh 29.82 in1009.8 mb 0.00 in0.0 mm 0.00 in0.0 mm 0.00 in0.0 mm
08:43 AM 69.1°F20.6°C 61.2°F16.2°C 76% 0.7 mph S1.1 kmh S 3.1 mph5.0 kmh 29.82 in1009.8 mb 0.00 in0.0 mm 0.00 in0.0 mm 0.00 in0.0 mm
08:48 AM 69.3°F20.7°C 61.0°F16.1°C 75% 1.3 mph SW2.1 kmh SW 5.4 mph8.7 kmh 29.82 in1009.8 mb 0.00 in0.0 mm 0.00 in0.0 mm 0.00 in0.0 mm
08:53 AM 69.4°F20.8°C 61.2°F16.2°C 75% 0.7 mph SSE1.1 kmh SSE 4.3 mph6.9 kmh 29.82 in1009.8 mb 0.00 in0.0 mm 0.00 in0.0 mm 0.00 in0.0 mm
08:58 AM 69.6°F20.9°C 61.3°F16.3°C 75% Calm Calm 2.0 mph3.2 kmh 29.82 in1009.8 mb 0.00 in0.0 mm 0.00 in0.0 mm 0.00 in0.0 mm
09:03 AM 70.0°F21.1°C 61.0°F16.1°C 73% 0.7 mph W1.1 kmh W 3.1 mph5.0 kmh 29.82 in1009.8 mb 0.00 in0.0 mm 0.00 in0.0 mm 0.00 in0.0 mm
09:08 AM 69.6°F20.9°C 60.6°F15.9°C 73% 1.8 mph SE2.9 kmh SE 4.3 mph6.9 kmh 29.82 in1009.8 mb 0.00 in0.0 mm 0.00 in0.0 mm 0.00 in0.0 mm
09:13 AM 70.0°F21.1°C 61.3°F16.3°C 74% Calm Calm 4.3 mph6.9 kmh 29.82 in1009.8 mb 0.00 in0.0 mm 0.00 in0.0 mm 0.00 in0.0 mm
09:18 AM 70.5°F21.4°C 61.0°F16.1°C 72% 2.9 mph SW4.7 kmh SW 6.3 mph10.1 kmh 29.83 in1010.2 mb 0.00 in0.0 mm 0.00 in0.0 mm 0.00 in0.0 mm
09:23 AM 70.2°F21.2°C 60.6°F15.9°C 72% 1.6 mph WSW2.6 kmh WSW 5.4 mph8.7 kmh 29.83 in1010.2 mb 0.00 in0.0 mm 0.00 in0.0 mm 0.00 in0.0 mm
09:28 AM 70.3°F21.3°C 60.8°F16.0°C 72% 1.8 mph SW2.9 kmh SW 6.3 mph10.1 kmh 29.83 in1010.2 mb 0.00 in0.0 mm 0.00 in0.0 mm 0.00 in0.0 mm
09:33 AM 71.1°F21.7°C 61.5°F16.4°C 72% 1.8 mph S2.9 kmh S 6.3 mph10.1 kmh 29.83 in1010.2 mb 0.00 in0.0 mm 0.00 in0.0 mm 0.00 in0.0 mm
09:38 AM 71.4°F21.9°C 61.5°F16.4°C 71% Calm Calm 6.3 mph10.1 kmh 29.83 in1010.2 mb 0.00 in0.0 mm 0.00 in0.0 mm 0.00 in0.0 mm
09:43 AM 71.4°F21.9°C 60.8°F16.0°C 69% 5.8 mph SW9.3 kmh SW 9.6 mph15.4 kmh 29.82 in1009.8 mb 0.00 in0.0 mm 0.00 in0.0 mm 0.00 in0.0 mm
09:48 AM 71.4°F21.9°C 61.2°F16.2°C 70% 2.2 mph SW3.5 kmh SW 6.3 mph10.1 kmh 29.82 in1009.8 mb 0.00 in0.0 mm 0.00 in0.0 mm 0.00 in0.0 mm
09:53 AM 72.1°F22.3°C 61.3°F16.3°C 69% 0.2 mph SW0.3 kmh SW 3.1 mph5.0 kmh 29.82 in1009.8 mb 0.00 in0.0 mm 0.00 in0.0 mm 0.00 in0.0 mm
09:58 AM 73.2°F22.9°C 62.1°F16.7°C 68% 4.9 mph WSW7.9 kmh WSW 8.5 mph13.7 kmh 29.83 in1010.2 mb 0.00 in0.0 mm 0.00 in0.0 mm 0.00 in0.0 mm
10:03 AM 72.7°F22.6°C 61.2°F16.2°C 67% 4.7 mph SSW7.6 kmh SSW 9.6 mph15.4 kmh 29.82 in1009.8 mb 0.00 in0.0 mm 0.00 in0.0 mm 0.00 in0.0 mm
10:08 AM 72.3°F22.4°C 61.2°F16.2°C 68% 1.8 mph SW2.9 kmh SW 7.4 mph11.9 kmh 29.82 in1009.8 mb 0.00 in0.0 mm 0.00 in0.0 mm 0.00 in0.0 mm
10:13 AM 72.1°F22.3°C 61.3°F16.3°C 69% 2.5 mph SSW4.0 kmh SSW 9.6 mph15.4 kmh 29.82 in1009.8 mb 0.00 in0.0 mm 0.00 in0.0 mm 0.00 in0.0 mm
10:18 AM 72.3°F22.4°C 61.2°F16.2°C 68% 4.3 mph SSW6.9 kmh SSW 10.5 mph16.9 kmh 29.82 in1009.8 mb 0.00 in0.0 mm 0.00 in0.0 mm 0.00 in0.0 mm
10:23 AM 72.7°F22.6°C 61.9°F16.6°C 69% 3.6 mph WSW5.8 kmh WSW 9.6 mph15.4 kmh 29.82 in1009.8 mb 0.00 in0.0 mm 0.00 in0.0 mm 0.00 in0.0 mm
10:28 AM 72.3°F22.4°C 61.5°F16.4°C 69% 3.4 mph SSW5.5 kmh SSW 8.5 mph13.7 kmh 29.82 in1009.8 mb 0.00 in0.0 mm 0.00 in0.0 mm 0.00 in0.0 mm
10:33 AM 73.4°F23.0°C 61.7°F16.5°C 67% 5.8 mph S9.3 kmh S 10.5 mph16.9 kmh 29.83 in1010.2 mb 0.00 in0.0 mm 0.00 in0.0 mm 0.00 in0.0 mm
10:38 AM 74.1°F23.4°C 62.1°F16.7°C 66% 4.9 mph SSE7.9 kmh SSE 10.5 mph16.9 kmh 29.82 in1009.8 mb 0.00 in0.0 mm 0.00 in0.0 mm 0.00 in0.0 mm
10:43 AM 74.7°F23.7°C 61.7°F16.5°C 64% 4.7 mph SSW7.6 kmh SSW 11.6 mph18.7 kmh 29.82 in1009.8 mb 0.00 in0.0 mm 0.00 in0.0 mm 0.00 in0.0 mm
10:48 AM 74.5°F23.6°C 61.5°F16.4°C 64% 5.1 mph SE8.2 kmh SE 13.9 mph22.4 kmh 29.82 in1009.8 mb 0.00 in0.0 mm 0.00 in0.0 mm 0.00 in0.0 mm
10:53 AM 74.7°F23.7°C 61.2°F16.2°C 63% 6.5 mph SW10.5 kmh SW 10.5 mph16.9 kmh 29.82 in1009.8 mb 0.00 in0.0 mm 0.00 in0.0 mm 0.00 in0.0 mm
10:58 AM 74.8°F23.8°C 61.9°F16.6°C 64% 2.2 mph WSW3.5 kmh WSW 9.6 mph15.4 kmh 29.82 in1009.8 mb 0.00 in0.0 mm 0.00 in0.0 mm 0.00 in0.0 mm
11:03 AM 74.5°F23.6°C 61.5°F16.4°C 64% 6.5 mph SW10.5 kmh SW 10.5 mph16.9 kmh 29.82 in1009.8 mb 0.00 in0.0 mm 0.00 in0.0 mm 0.00 in0.0 mm
11:08 AM 74.5°F23.6°C 61.9°F16.6°C 65% 5.4 mph SW8.7 kmh SW 10.5 mph16.9 kmh 29.81 in1009.5 mb 0.00 in0.0 mm 0.00 in0.0 mm 0.00 in0.0 mm
11:13 AM 74.8°F23.8°C 61.9°F16.6°C 64% 7.2 mph SSW11.6 kmh SSW 11.6 mph18.7 kmh 29.81 in1009.5 mb 0.00 in0.0 mm 0.00 in0.0 mm 0.00 in0.0 mm
11:18 AM 74.5°F23.6°C 61.5°F16.4°C 64% 6.9 mph WNW11.1 kmh WNW 15.9 mph25.6 kmh 29.81 in1009.5 mb 0.00 in0.0 mm 0.00 in0.0 mm 0.00 in0.0 mm
11:23 AM 74.7°F23.7°C 61.2°F16.2°C 63% 5.1 mph SW8.2 kmh SW 11.6 mph18.7 kmh 29.81 in1009.5 mb 0.00 in0.0 mm 0.00 in0.0 mm 0.00 in0.0 mm
11:28 AM 74.7°F23.7°C 61.2°F16.2°C 63% 4.3 mph SW6.9 kmh SW 11.6 mph18.7 kmh 29.81 in1009.5 mb 0.00 in0.0 mm 0.00 in0.0 mm 0.00 in0.0 mm
11:33 AM 74.7°F23.7°C 61.2°F16.2°C 63% 5.4 mph WSW8.7 kmh WSW 9.6 mph15.4 kmh 29.81 in1009.5 mb 0.00 in0.0 mm 0.00 in0.0 mm 0.00 in0.0 mm
11:38 AM 74.7°F23.7°C 61.7°F16.5°C 64% 5.6 mph WSW9.0 kmh WSW 11.6 mph18.7 kmh 29.81 in1009.5 mb 0.00 in0.0 mm 0.00 in0.0 mm 0.00 in0.0 mm
11:43 AM 74.1°F23.4°C 61.5°F16.4°C 65% 4.9 mph W7.9 kmh W 12.8 mph20.6 kmh 29.81 in1009.5 mb 0.00 in0.0 mm 0.00 in0.0 mm 0.00 in0.0 mm
11:48 AM 74.7°F23.7°C 61.7°F16.5°C 64% 4.9 mph SSW7.9 kmh SSW 7.4 mph11.9 kmh 29.81 in1009.5 mb 0.00 in0.0 mm 0.00 in0.0 mm 0.00 in0.0 mm
11:53 AM 75.0°F23.9°C 61.5°F16.4°C 63% 7.2 mph SW11.6 kmh SW 12.8 mph20.6 kmh 29.81 in1009.5 mb 0.00 in0.0 mm 0.00 in0.0 mm 0.00 in0.0 mm
11:58 AM 74.8°F23.8°C 61.3°F16.3°C 63% 5.4 mph SW8.7 kmh SW 11.6 mph18.7 kmh 29.81 in1009.5 mb 0.00 in0.0 mm 0.00 in0.0 mm 0.00 in0.0 mm
12:03 PM 75.4°F24.1°C 61.0°F16.1°C 61% 7.4 mph SW11.9 kmh SW 12.8 mph20.6 kmh 29.81 in1009.5 mb 0.00 in0.0 mm 0.00 in0.0 mm 0.00 in0.0 mm
12:08 PM 75.6°F24.2°C 61.7°F16.5°C 62% 7.4 mph SW11.9 kmh SW 13.9 mph22.4 kmh 29.81 in1009.5 mb 0.00 in0.0 mm 0.00 in0.0 mm 0.00 in0.0 mm
12:13 PM 75.9°F24.4°C 61.9°F16.6°C 62% 5.4 mph SSW8.7 kmh SSW 9.6 mph15.4 kmh 29.81 in1009.5 mb 0.00 in0.0 mm 0.00 in0.0 mm 0.00 in0.0 mm
12:18 PM 75.9°F24.4°C 61.5°F16.4°C 61% 6.3 mph SW10.1 kmh SW 11.6 mph18.7 kmh 29.81 in1009.5 mb 0.00 in0.0 mm 0.00 in0.0 mm 0.00 in0.0 mm
12:23 PM 75.4°F24.1°C 61.5°F16.4°C 62% 8.7 mph S14.0 kmh S 13.9 mph22.4 kmh 29.81 in1009.5 mb 0.00 in0.0 mm 0.00 in0.0 mm 0.00 in0.0 mm
12:28 PM 74.7°F23.7°C 61.2°F16.2°C 63% 6.0 mph SSW9.7 kmh SSW 12.8 mph20.6 kmh 29.80 in1009.1 mb 0.00 in0.0 mm 0.00 in0.0 mm 0.00 in0.0 mm
12:33 PM 75.4°F24.1°C 61.9°F16.6°C 63% 6.5 mph SW10.5 kmh SW 11.6 mph18.7 kmh 29.81 in1009.5 mb 0.00 in0.0 mm 0.00 in0.0 mm 0.00 in0.0 mm
12:38 PM 75.6°F24.2°C 61.2°F16.2°C 61% 5.8 mph WSW9.3 kmh WSW 12.8 mph20.6 kmh 29.80 in1009.1 mb 0.00 in0.0 mm 0.00 in0.0 mm 0.00 in0.0 mm
12:43 PM 74.8°F23.8°C 61.0°F16.1°C 62% 6.5 mph WSW10.5 kmh WSW 13.9 mph22.4 kmh 29.81 in1009.5 mb 0.00 in0.0 mm 0.00 in0.0 mm 0.00 in0.0 mm
12:48 PM 74.7°F23.7°C 61.7°F16.5°C 64% 5.8 mph W9.3 kmh W 13.9 mph22.4 kmh 29.80 in1009.1 mb 0.00 in0.0 mm 0.00 in0.0 mm 0.00 in0.0 mm
12:53 PM 74.8°F23.8°C 61.9°F16.6°C 64% 7.8 mph SW12.6 kmh SW 15.9 mph25.6 kmh 29.80 in1009.1 mb 0.00 in0.0 mm 0.00 in0.0 mm 0.00 in0.0 mm
12:58 PM 74.5°F23.6°C 61.5°F16.4°C 64% 7.4 mph SW11.9 kmh SW 13.9 mph22.4 kmh 29.80 in1009.1 mb 0.00 in0.0 mm 0.00 in0.0 mm 0.00 in0.0 mm
01:03 PM 75.0°F23.9°C 62.1°F16.7°C 64% 8.3 mph SSE13.4 kmh SSE 11.6 mph18.7 kmh 29.80 in1009.1 mb 0.00 in0.0 mm 0.00 in0.0 mm 0.00 in0.0 mm
01:08 PM 75.4°F24.1°C 62.4°F16.9°C 64% 5.8 mph S9.3 kmh S 11.6 mph18.7 kmh 29.80 in1009.1 mb 0.00 in0.0 mm 0.00 in0.0 mm 0.00 in0.0 mm
01:13 PM 74.7°F23.7°C 62.1°F16.7°C 65% 6.3 mph SW10.1 kmh SW 14.8 mph23.8 kmh 29.80 in1009.1 mb 0.00 in0.0 mm 0.00 in0.0 mm 0.00 in0.0 mm
01:18 PM 74.7°F23.7°C 62.1°F16.7°C 65% 10.1 mph S16.3 kmh S 13.9 mph22.4 kmh 29.80 in1009.1 mb 0.00 in0.0 mm 0.00 in0.0 mm 0.00 in0.0 mm
01:23 PM 74.1°F23.4°C 62.1°F16.7°C 66% 9.4 mph SSW15.1 kmh SSW 18.1 mph29.1 kmh 29.80 in1009.1 mb 0.00 in0.0 mm 0.00 in0.0 mm 0.00 in0.0 mm
01:28 PM 74.7°F23.7°C 62.6°F17.0°C 66% 8.1 mph SW13.0 kmh SW 14.8 mph23.8 kmh 29.79 in1008.8 mb 0.00 in0.0 mm 0.00 in0.0 mm 0.00 in0.0 mm
01:33 PM 74.5°F23.6°C 62.4°F16.9°C 66% 7.6 mph WNW12.2 kmh WNW 14.8 mph23.8 kmh 29.79 in1008.8 mb 0.00 in0.0 mm 0.00 in0.0 mm 0.00 in0.0 mm
01:38 PM 74.7°F23.7°C 62.6°F17.0°C 66% 6.3 mph SSW10.1 kmh SSW 14.8 mph23.8 kmh 29.79 in1008.8 mb 0.00 in0.0 mm 0.00 in0.0 mm 0.00 in0.0 mm
01:43 PM 74.8°F23.8°C 63.1°F17.3°C 67% 5.4 mph SW8.7 kmh SW 13.9 mph22.4 kmh 29.79 in1008.8 mb 0.00 in0.0 mm 0.00 in0.0 mm 0.00 in0.0 mm
01:48 PM 74.1°F23.4°C 62.1°F16.7°C 66% 8.1 mph NW13.0 kmh NW 14.8 mph23.8 kmh 29.78 in1008.5 mb 0.00 in0.0 mm 0.00 in0.0 mm 0.00 in0.0 mm
01:53 PM 74.1°F23.4°C 63.0°F17.2°C 68% 6.7 mph SW10.8 kmh SW 14.8 mph23.8 kmh 29.78 in1008.5 mb 0.00 in0.0 mm 0.00 in0.0 mm 0.00 in0.0 mm
01:58 PM 74.5°F23.6°C 62.8°F17.1°C 67% 6.0 mph SW9.7 kmh SW 15.9 mph25.6 kmh 29.78 in1008.5 mb 0.00 in0.0 mm 0.00 in0.0 mm 0.00 in0.0 mm
02:03 PM 74.5°F23.6°C 62.4°F16.9°C 66% 8.3 mph WSW13.4 kmh WSW 14.8 mph23.8 kmh 29.79 in1008.8 mb 0.00 in0.0 mm 0.00 in0.0 mm 0.00 in0.0 mm
02:08 PM 74.3°F23.5°C 62.6°F17.0°C 67% 7.4 mph WSW11.9 kmh WSW 13.9 mph22.4 kmh 29.78 in1008.5 mb 0.00 in0.0 mm 0.00 in0.0 mm 0.00 in0.0 mm
02:13 PM 73.8°F23.2°C 62.6°F17.0°C 68% 8.5 mph WSW13.7 kmh WSW 12.8 mph20.6 kmh 29.78 in1008.5 mb 0.00 in0.0 mm 0.00 in0.0 mm 0.00 in0.0 mm
02:18 PM 73.6°F23.1°C 62.8°F17.1°C 69% 6.7 mph SW10.8 kmh SW 11.6 mph18.7 kmh 29.78 in1008.5 mb 0.00 in0.0 mm 0.00 in0.0 mm 0.00 in0.0 mm
02:23 PM 73.6°F23.1°C 62.8°F17.1°C 69% 6.9 mph S11.1 kmh S 11.6 mph18.7 kmh 29.78 in1008.5 mb 0.00 in0.0 mm 0.00 in0.0 mm 0.00 in0.0 mm
02:28 PM 73.9°F23.3°C 62.8°F17.1°C 68% 6.7 mph SSW10.8 kmh SSW 9.6 mph15.4 kmh 29.78 in1008.5 mb 0.00 in0.0 mm 0.00 in0.0 mm 0.00 in0.0 mm
02:33 PM 73.9°F23.3°C 62.2°F16.8°C 67% 7.6 mph W12.2 kmh W 12.8 mph20.6 kmh 29.78 in1008.5 mb 0.00 in0.0 mm 0.00 in0.0 mm 0.00 in0.0 mm
02:38 PM 73.9°F23.3°C 63.1°F17.3°C 69% 3.6 mph SSW5.8 kmh SSW 12.8 mph20.6 kmh 29.78 in1008.5 mb 0.00 in0.0 mm 0.00 in0.0 mm 0.00 in0.0 mm
02:43 PM 74.5°F23.6°C 62.4°F16.9°C 66% 4.7 mph SE7.6 kmh SE 11.6 mph18.7 kmh 29.77 in1008.1 mb 0.00 in0.0 mm 0.00 in0.0 mm 0.00 in0.0 mm
02:48 PM 74.8°F23.8°C 63.1°F17.3°C 67% 5.1 mph SW8.2 kmh SW 8.5 mph13.7 kmh 29.77 in1008.1 mb 0.00 in0.0 mm 0.00 in0.0 mm 0.00 in0.0 mm
02:53 PM 74.3°F23.5°C 62.6°F17.0°C 67% 6.7 mph SSW10.8 kmh SSW 12.8 mph20.6 kmh 29.77 in1008.1 mb 0.00 in0.0 mm 0.00 in0.0 mm 0.00 in0.0 mm
02:58 PM 74.5°F23.6°C 63.1°F17.3°C 68% 6.3 mph S10.1 kmh S 12.8 mph20.6 kmh 29.77 in1008.1 mb 0.00 in0.0 mm 0.00 in0.0 mm 0.00 in0.0 mm
03:03 PM 74.1°F23.4°C 62.4°F16.9°C 67% 7.6 mph SW12.2 kmh SW 10.5 mph16.9 kmh 29.77 in1008.1 mb 0.00 in0.0 mm 0.00 in0.0 mm 0.00 in0.0 mm
03:08 PM 73.8°F23.2°C 62.6°F17.0°C 68% 6.7 mph SW10.8 kmh SW 12.8 mph20.6 kmh 29.77 in1008.1 mb 0.00 in0.0 mm 0.00 in0.0 mm 0.00 in0.0 mm
03:13 PM 74.3°F23.5°C 63.1°F17.3°C 68% 4.9 mph SW7.9 kmh SW 8.5 mph13.7 kmh 29.77 in1008.1 mb 0.00 in0.0 mm 0.00 in0.0 mm 0.00 in0.0 mm
03:18 PM 74.5°F23.6°C 63.1°F17.3°C 68% 5.1 mph SSW8.2 kmh SSW 10.5 mph16.9 kmh 29.77 in1008.1 mb 0.00 in0.0 mm 0.00 in0.0 mm 0.00 in0.0 mm
03:23 PM 74.5°F23.6°C 62.8°F17.1°C 67% 4.7 mph SW7.6 kmh SW 11.6 mph18.7 kmh 29.77 in1008.1 mb 0.00 in0.0 mm 0.00 in0.0 mm 0.00 in0.0 mm
03:28 PM 74.5°F23.6°C 62.8°F17.1°C 67% 7.6 mph SSW12.2 kmh SSW 11.6 mph18.7 kmh 29.77 in1008.1 mb 0.00 in0.0 mm 0.00 in0.0 mm 0.00 in0.0 mm
03:33 PM 74.5°F23.6°C 63.1°F17.3°C 68% 5.1 mph SW8.2 kmh SW 11.6 mph18.7 kmh 29.77 in1008.1 mb 0.00 in0.0 mm 0.00 in0.0 mm 0.00 in0.0 mm
03:38 PM 74.5°F23.6°C 62.4°F16.9°C 66% 7.2 mph WSW11.6 kmh WSW 10.5 mph16.9 kmh 29.77 in1008.1 mb 0.00 in0.0 mm 0.00 in0.0 mm 0.00 in0.0 mm
03:43 PM 74.1°F23.4°C 63.0°F17.2°C 68% 6.3 mph SSW10.1 kmh SSW 10.5 mph16.9 kmh 29.77 in1008.1 mb 0.00 in0.0 mm 0.00 in0.0 mm 0.00 in0.0 mm
03:48 PM 74.1°F23.4°C 63.0°F17.2°C 68% 5.8 mph W9.3 kmh W 10.5 mph16.9 kmh 29.78 in1008.5 mb 0.00 in0.0 mm 0.00 in0.0 mm 0.00 in0.0 mm
03:53 PM 73.8°F23.2°C 62.1°F16.7°C 67% 5.4 mph WSW8.7 kmh WSW 9.6 mph15.4 kmh 29.78 in1008.5 mb 0.00 in0.0 mm 0.00 in0.0 mm 0.00 in0.0 mm
03:58 PM 73.4°F23.0°C 62.6°F17.0°C 69% 5.1 mph SW8.2 kmh SW 10.5 mph16.9 kmh 29.77 in1008.1 mb 0.00 in0.0 mm 0.00 in0.0 mm 0.00 in0.0 mm
04:03 PM 73.6°F23.1°C 62.8°F17.1°C 69% 5.4 mph SSW8.7 kmh SSW 10.5 mph16.9 kmh 29.78 in1008.5 mb 0.00 in0.0 mm 0.00 in0.0 mm 0.00 in0.0 mm
04:08 PM 73.8°F23.2°C 63.0°F17.2°C 69% 5.8 mph W9.3 kmh W 9.6 mph15.4 kmh 29.78 in1008.5 mb 0.00 in0.0 mm 0.00 in0.0 mm 0.00 in0.0 mm
04:13 PM 73.0°F22.8°C 62.2°F16.8°C 69% 4.0 mph SW6.4 kmh SW 11.6 mph18.7 kmh 29.78 in1008.5 mb 0.00 in0.0 mm 0.00 in0.0 mm 0.00 in0.0 mm
04:18 PM 73.0°F22.8°C 62.2°F16.8°C 69% 6.0 mph WSW9.7 kmh WSW 12.8 mph20.6 kmh 29.78 in1008.5 mb 0.00 in0.0 mm 0.00 in0.0 mm 0.00 in0.0 mm
04:23 PM 73.0°F22.8°C 62.6°F17.0°C 70% 4.3 mph WSW6.9 kmh WSW 10.5 mph16.9 kmh 29.78 in1008.5 mb 0.00 in0.0 mm 0.00 in0.0 mm 0.00 in0.0 mm
04:28 PM 73.0°F22.8°C 62.6°F17.0°C 70% 6.5 mph SW10.5 kmh SW 11.6 mph18.7 kmh 29.78 in1008.5 mb 0.00 in0.0 mm 0.00 in0.0 mm 0.00 in0.0 mm
04:33 PM 72.1°F22.3°C 61.9°F16.6°C 70% 5.8 mph NW9.3 kmh NW 11.6 mph18.7 kmh 29.78 in1008.5 mb 0.00 in0.0 mm 0.00 in0.0 mm 0.00 in0.0 mm
04:38 PM 71.8°F22.1°C 61.9°F16.6°C 71% 8.1 mph SSW13.0 kmh SSW 11.6 mph18.7 kmh 29.78 in1008.5 mb 0.00 in0.0 mm 0.00 in0.0 mm 0.00 in0.0 mm
04:43 PM 71.4°F21.9°C 61.9°F16.6°C 72% 6.5 mph WSW10.5 kmh WSW 12.8 mph20.6 kmh 29.78 in1008.5 mb 0.00 in0.0 mm 0.00 in0.0 mm 0.00 in0.0 mm
04:48 PM 70.9°F21.6°C 62.2°F16.8°C 74% 5.1 mph SW8.2 kmh SW 12.8 mph20.6 kmh 29.78 in1008.5 mb 0.00 in0.0 mm 0.00 in0.0 mm 0.00 in0.0 mm
04:53 PM 70.5°F21.4°C 61.9°F16.6°C 74% 6.9 mph SSW11.1 kmh SSW 10.5 mph16.9 kmh 29.78 in1008.5 mb 0.00 in0.0 mm 0.00 in0.0 mm 0.00 in0.0 mm
04:58 PM 70.3°F21.3°C 62.1°F16.7°C 75% 6.3 mph SW10.1 kmh SW 10.5 mph16.9 kmh 29.78 in1008.5 mb 0.00 in0.0 mm 0.00 in0.0 mm 0.00 in0.0 mm
05:03 PM 70.3°F21.3°C 62.4°F16.9°C 76% 5.4 mph SW8.7 kmh SW 10.5 mph16.9 kmh 29.78 in1008.5 mb 0.00 in0.0 mm 0.00 in0.0 mm 0.00 in0.0 mm
05:08 PM 70.0°F21.1°C 62.1°F16.7°C 76% 4.0 mph W6.4 kmh W 10.5 mph16.9 kmh 29.79 in1008.8 mb 0.00 in0.0 mm 0.00 in0.0 mm 0.00 in0.0 mm
05:13 PM 69.8°F21.0°C 61.9°F16.6°C 76% 6.3 mph SW10.1 kmh SW 10.5 mph16.9 kmh 29.78 in1008.5 mb 0.00 in0.0 mm 0.00 in0.0 mm 0.00 in0.0 mm
05:18 PM 69.4°F20.8°C 61.9°F16.6°C 77% 4.9 mph SW7.9 kmh SW 12.8 mph20.6 kmh 29.78 in1008.5 mb 0.00 in0.0 mm 0.00 in0.0 mm 0.00 in0.0 mm
05:23 PM 69.3°F20.7°C 61.7°F16.5°C 77% 4.7 mph SSW7.6 kmh SSW 9.6 mph15.4 kmh 29.79 in1008.8 mb 0.00 in0.0 mm 0.00 in0.0 mm 0.00 in0.0 mm
05:28 PM 69.1°F20.6°C 61.9°F16.6°C 78% 2.2 mph SW3.5 kmh SW 6.3 mph10.1 kmh 29.79 in1008.8 mb 0.00 in0.0 mm 0.00 in0.0 mm 0.00 in0.0 mm
05:33 PM 69.1°F20.6°C 61.9°F16.6°C 78% 5.8 mph SW9.3 kmh SW 8.5 mph13.7 kmh 29.79 in1008.8 mb 0.00 in0.0 mm 0.00 in0.0 mm 0.00 in0.0 mm
05:38 PM 69.1°F20.6°C 61.9°F16.6°C 78% 4.3 mph SW6.9 kmh SW 8.5 mph13.7 kmh 29.79 in1008.8 mb 0.00 in0.0 mm 0.00 in0.0 mm 0.00 in0.0 mm
05:43 PM 69.1°F20.6°C 61.9°F16.6°C 78% 3.6 mph SW5.8 kmh SW 6.3 mph10.1 kmh 29.79 in1008.8 mb 0.00 in0.0 mm 0.00 in0.0 mm 0.00 in0.0 mm
05:48 PM 68.9°F20.5°C 61.7°F16.5°C 78% 4.9 mph SW7.9 kmh SW 8.5 mph13.7 kmh 29.79 in1008.8 mb 0.00 in0.0 mm 0.00 in0.0 mm 0.00 in0.0 mm
05:53 PM 68.5°F20.3°C 61.7°F16.5°C 79% 4.0 mph SW6.4 kmh SW 8.5 mph13.7 kmh 29.80 in1009.1 mb 0.00 in0.0 mm 0.00 in0.0 mm 0.00 in0.0 mm
05:58 PM 68.4°F20.2°C 61.5°F16.4°C 79% 3.6 mph WSW5.8 kmh WSW 5.4 mph8.7 kmh 29.80 in1009.1 mb 0.00 in0.0 mm 0.00 in0.0 mm 0.00 in0.0 mm
06:03 PM 68.2°F20.1°C 61.3°F16.3°C 79% 4.7 mph SSW7.6 kmh SSW 9.6 mph15.4 kmh 29.80 in1009.1 mb 0.00 in0.0 mm 0.00 in0.0 mm 0.00 in0.0 mm
06:08 PM 68.0°F20.0°C 61.5°F16.4°C 80% 3.4 mph SW5.5 kmh SW 7.4 mph11.9 kmh 29.80 in1009.1 mb 0.00 in0.0 mm 0.00 in0.0 mm 0.00 in0.0 mm
06:13 PM 67.8°F19.9°C 61.3°F16.3°C 80% 4.5 mph SW7.2 kmh SW 8.5 mph13.7 kmh 29.80 in1009.1 mb 0.00 in0.0 mm 0.00 in0.0 mm 0.00 in0.0 mm
06:18 PM 67.8°F19.9°C 61.7°F16.5°C 81% 4.5 mph WSW7.2 kmh WSW 7.4 mph11.9 kmh 29.80 in1009.1 mb 0.00 in0.0 mm 0.00 in0.0 mm 0.00 in0.0 mm
06:23 PM 67.8°F19.9°C 61.7°F16.5°C 81% 2.5 mph SW4.0 kmh SW 5.4 mph8.7 kmh 29.81 in1009.5 mb 0.00 in0.0 mm 0.00 in0.0 mm 0.00 in0.0 mm
06:28 PM 67.8°F19.9°C 61.7°F16.5°C 81% 2.9 mph W4.7 kmh W 6.3 mph10.1 kmh 29.81 in1009.5 mb 0.00 in0.0 mm 0.00 in0.0 mm 0.00 in0.0 mm
06:33 PM 67.8°F19.9°C 61.7°F16.5°C 81% 3.1 mph SSW5.0 kmh SSW 6.3 mph10.1 kmh 29.81 in1009.5 mb 0.00 in0.0 mm 0.00 in0.0 mm 0.00 in0.0 mm
06:38 PM 67.8°F19.9°C 61.7°F16.5°C 81% 2.5 mph SW4.0 kmh SW 5.4 mph8.7 kmh 29.81 in1009.5 mb 0.00 in0.0 mm 0.00 in0.0 mm 0.00 in0.0 mm
06:43 PM 67.6°F19.8°C 61.5°F16.4°C 81% 3.1 mph SW5.0 kmh SW 6.3 mph10.1 kmh 29.81 in1009.5 mb 0.00 in0.0 mm 0.00 in0.0 mm 0.00 in0.0 mm
06:48 PM 67.6°F19.8°C 61.5°F16.4°C 81% 1.6 mph WSW2.6 kmh WSW 5.4 mph8.7 kmh 29.81 in1009.5 mb 0.00 in0.0 mm 0.00 in0.0 mm 0.00 in0.0 mm
06:53 PM 67.6°F19.8°C 61.5°F16.4°C 81% 1.1 mph SW1.8 kmh SW 6.3 mph10.1 kmh 29.81 in1009.5 mb 0.00 in0.0 mm 0.00 in0.0 mm 0.00 in0.0 mm
06:58 PM 67.6°F19.8°C 61.5°F16.4°C 81% 2.0 mph W3.2 kmh W 5.4 mph8.7 kmh 29.81 in1009.5 mb 0.00 in0.0 mm 0.00 in0.0 mm 0.00 in0.0 mm
07:03 PM 67.6°F19.8°C 61.5°F16.4°C 81% 2.2 mph SW3.5 kmh SW 5.4 mph8.7 kmh 29.82 in1009.8 mb 0.00 in0.0 mm 0.00 in0.0 mm 0.00 in0.0 mm
07:08 PM 67.6°F19.8°C 61.9°F16.6°C 82% 2.7 mph WSW4.3 kmh WSW 5.4 mph8.7 kmh 29.82 in1009.8 mb 0.00 in0.0 mm 0.00 in0.0 mm 0.00 in0.0 mm
07:13 PM 67.6°F19.8°C 61.9°F16.6°C 82% 1.3 mph WSW2.1 kmh WSW 7.4 mph11.9 kmh 29.82 in1009.8 mb 0.00 in0.0 mm 0.00 in0.0 mm 0.00 in0.0 mm
07:18 PM 67.6°F19.8°C 61.9°F16.6°C 82% 2.5 mph SW4.0 kmh SW 4.3 mph6.9 kmh 29.82 in1009.8 mb 0.00 in0.0 mm 0.00 in0.0 mm 0.00 in0.0 mm
07:23 PM 67.6°F19.8°C 61.9°F16.6°C 82% 2.2 mph W3.5 kmh W 5.4 mph8.7 kmh 29.82 in1009.8 mb 0.00 in0.0 mm 0.00 in0.0 mm 0.00 in0.0 mm
07:28 PM 67.6°F19.8°C 61.9°F16.6°C 82% 2.5 mph SSW4.0 kmh SSW 6.3 mph10.1 kmh 29.82 in1009.8 mb 0.00 in0.0 mm 0.00 in0.0 mm 0.00 in0.0 mm
07:33 PM 67.5°F19.7°C 61.7°F16.5°C 82% 0.7 mph SW1.1 kmh SW 6.3 mph10.1 kmh 29.83 in1010.2 mb 0.00 in0.0 mm 0.00 in0.0 mm 0.00 in0.0 mm
07:38 PM 67.6°F19.8°C 61.9°F16.6°C 82% 2.7 mph SW4.3 kmh SW 6.3 mph10.1 kmh 29.83 in1010.2 mb 0.00 in0.0 mm 0.00 in0.0 mm 0.00 in0.0 mm
07:43 PM 67.6°F19.8°C 62.2°F16.8°C 83% 1.3 mph SSW2.1 kmh SSW 5.4 mph8.7 kmh 29.83 in1010.2 mb 0.00 in0.0 mm 0.00 in0.0 mm 0.00 in0.0 mm
07:48 PM 67.6°F19.8°C 61.9°F16.6°C 82% 1.3 mph SE2.1 kmh SE 5.4 mph8.7 kmh 29.83 in1010.2 mb 0.00 in0.0 mm 0.00 in0.0 mm 0.00 in0.0 mm
07:53 PM 67.6°F19.8°C 61.9°F16.6°C 82% Calm Calm 2.0 mph3.2 kmh 29.83 in1010.2 mb 0.00 in0.0 mm 0.00 in0.0 mm 0.00 in0.0 mm
07:58 PM 67.6°F19.8°C 62.2°F16.8°C 83% 2.0 mph SW3.2 kmh SW 4.3 mph6.9 kmh 29.83 in1010.2 mb 0.00 in0.0 mm 0.00 in0.0 mm 0.00 in0.0 mm
08:03 PM 67.6°F19.8°C 62.2°F16.8°C 83% 1.6 mph WSW2.6 kmh WSW 5.4 mph8.7 kmh 29.83 in1010.2 mb 0.00 in0.0 mm 0.00 in0.0 mm 0.00 in0.0 mm
08:08 PM 67.6°F19.8°C 62.2°F16.8°C 83% 3.1 mph WSW5.0 kmh WSW 5.4 mph8.7 kmh 29.83 in1010.2 mb 0.00 in0.0 mm 0.00 in0.0 mm 0.00 in0.0 mm
08:13 PM 67.5°F19.7°C 62.1°F16.7°C 83% 2.0 mph SW3.2 kmh SW 4.3 mph6.9 kmh 29.83 in1010.2 mb 0.00 in0.0 mm 0.00 in0.0 mm 0.00 in0.0 mm
08:18 PM 67.5°F19.7°C 62.1°F16.7°C 83% 2.0 mph SSW3.2 kmh SSW 5.4 mph8.7 kmh 29.83 in1010.2 mb 0.00 in0.0 mm 0.00 in0.0 mm 0.00 in0.0 mm
08:23 PM 67.6°F19.8°C 62.2°F16.8°C 83% 3.4 mph SW5.5 kmh SW 6.3 mph10.1 kmh 29.83 in1010.2 mb 0.00 in0.0 mm 0.00 in0.0 mm 0.00 in0.0 mm
08:28 PM 67.5°F19.7°C 62.1°F16.7°C 83% 2.7 mph SSW4.3 kmh SSW 5.4 mph8.7 kmh 29.83 in1010.2 mb 0.00 in0.0 mm 0.00 in0.0 mm 0.00 in0.0 mm
08:33 PM 67.5°F19.7°C 62.1°F16.7°C 83% 1.1 mph SSW1.8 kmh SSW 5.4 mph8.7 kmh 29.83 in1010.2 mb 0.00 in0.0 mm 0.00 in0.0 mm 0.00 in0.0 mm
08:38 PM 67.5°F19.7°C 62.1°F16.7°C 83% 1.6 mph SW2.6 kmh SW 5.4 mph8.7 kmh 29.84 in1010.5 mb 0.00 in0.0 mm 0.00 in0.0 mm 0.00 in0.0 mm
08:43 PM 67.5°F19.7°C 62.1°F16.7°C 83% 3.6 mph WSW5.8 kmh WSW 5.4 mph8.7 kmh 29.84 in1010.5 mb 0.00 in0.0 mm 0.00 in0.0 mm 0.00 in0.0 mm
08:48 PM 67.5°F19.7°C 62.1°F16.7°C 83% 0.4 mph SW0.6 kmh SW 4.3 mph6.9 kmh 29.84 in1010.5 mb 0.00 in0.0 mm 0.00 in0.0 mm 0.00 in0.0 mm
08:53 PM 67.6°F19.8°C 62.2°F16.8°C 83% 2.2 mph SW3.5 kmh SW 6.3 mph10.1 kmh 29.83 in1010.2 mb 0.00 in0.0 mm 0.00 in0.0 mm 0.00 in0.0 mm
08:58 PM 67.6°F19.8°C 62.2°F16.8°C 83% 0.2 mph SW0.3 kmh SW 3.1 mph5.0 kmh 29.83 in1010.2 mb 0.00 in0.0 mm 0.00 in0.0 mm 0.00 in0.0 mm
09:03 PM 67.6°F19.8°C 62.2°F16.8°C 83% 1.6 mph SW2.6 kmh SW 3.1 mph5.0 kmh 29.83 in1010.2 mb 0.00 in0.0 mm 0.00 in0.0 mm 0.00 in0.0 mm
09:08 PM 67.6°F19.8°C 62.2°F16.8°C 83% 2.0 mph SW3.2 kmh SW 4.3 mph6.9 kmh 29.83 in1010.2 mb 0.00 in0.0 mm 0.00 in0.0 mm 0.00 in0.0 mm
09:13 PM 67.6°F19.8°C 62.2°F16.8°C 83% 0.7 mph SSE1.1 kmh SSE 3.1 mph5.0 kmh 29.83 in1010.2 mb 0.00 in0.0 mm 0.00 in0.0 mm 0.00 in0.0 mm
09:18 PM 67.6°F19.8°C 61.9°F16.6°C 82% 3.6 mph SW5.8 kmh SW 5.4 mph8.7 kmh 29.83 in1010.2 mb 0.00 in0.0 mm 0.00 in0.0 mm 0.00 in0.0 mm
09:23 PM 67.6°F19.8°C 61.9°F16.6°C 82% 3.1 mph SW5.0 kmh SW 4.3 mph6.9 kmh 29.83 in1010.2 mb 0.00 in0.0 mm 0.00 in0.0 mm 0.00 in0.0 mm
09:28 PM 67.6°F19.8°C 62.2°F16.8°C 83% Calm Calm 5.4 mph8.7 kmh 29.83 in1010.2 mb 0.00 in0.0 mm 0.00 in0.0 mm 0.00 in0.0 mm
09:33 PM 67.6°F19.8°C 61.9°F16.6°C 82% 1.6 mph WSW2.6 kmh WSW 3.1 mph5.0 kmh 29.83 in1010.2 mb 0.00 in0.0 mm 0.00 in0.0 mm 0.00 in0.0 mm
09:38 PM 67.8°F19.9°C 62.1°F16.7°C 82% Calm Calm 3.1 mph5.0 kmh 29.83 in1010.2 mb 0.00 in0.0 mm 0.00 in0.0 mm 0.00 in0.0 mm
09:43 PM 67.8°F19.9°C 62.1°F16.7°C 82% 2.0 mph SW3.2 kmh SW 4.3 mph6.9 kmh 29.83 in1010.2 mb 0.00 in0.0 mm 0.00 in0.0 mm 0.00 in0.0 mm
09:48 PM 67.8°F19.9°C 62.1°F16.7°C 82% 2.7 mph SW4.3 kmh SW 4.3 mph6.9 kmh 29.83 in1010.2 mb 0.00 in0.0 mm 0.00 in0.0 mm 0.00 in0.0 mm
09:53 PM 67.8°F19.9°C 62.1°F16.7°C 82% 0.9 mph SSW1.4 kmh SSW 4.3 mph6.9 kmh 29.83 in1010.2 mb 0.00 in0.0 mm 0.00 in0.0 mm 0.00 in0.0 mm
09:58 PM 68.0°F20.0°C 62.2°F16.8°C 82% 1.6 mph W2.6 kmh W 4.3 mph6.9 kmh 29.83 in1010.2 mb 0.00 in0.0 mm 0.00 in0.0 mm 0.00 in0.0 mm
10:03 PM 67.8°F19.9°C 62.1°F16.7°C 82% 0.9 mph WSW1.4 kmh WSW 4.3 mph6.9 kmh 29.83 in1010.2 mb 0.00 in0.0 mm 0.00 in0.0 mm 0.00 in0.0 mm
10:08 PM 67.8°F19.9°C 62.1°F16.7°C 82% 2.7 mph W4.3 kmh W 6.3 mph10.1 kmh 29.83 in1010.2 mb 0.00 in0.0 mm 0.00 in0.0 mm 0.00 in0.0 mm
10:13 PM 67.8°F19.9°C 62.1°F16.7°C 82% 2.0 mph SW3.2 kmh SW 4.3 mph6.9 kmh 29.83 in1010.2 mb 0.00 in0.0 mm 0.00 in0.0 mm 0.00 in0.0 mm
10:18 PM 67.6°F19.8°C 62.2°F16.8°C 83% 3.1 mph SSW5.0 kmh SSW 6.3 mph10.1 kmh 29.83 in1010.2 mb 0.00 in0.0 mm 0.00 in0.0 mm 0.00 in0.0 mm
10:23 PM 67.6°F19.8°C 62.2°F16.8°C 83% 2.7 mph SSW4.3 kmh SSW 6.3 mph10.1 kmh 29.83 in1010.2 mb 0.00 in0.0 mm 0.00 in0.0 mm 0.00 in0.0 mm
10:28 PM 67.6°F19.8°C 62.2°F16.8°C 83% 2.0 mph WSW3.2 kmh WSW 5.4 mph8.7 kmh 29.83 in1010.2 mb 0.00 in0.0 mm 0.00 in0.0 mm 0.00 in0.0 mm
10:33 PM 67.6°F19.8°C 62.2°F16.8°C 83% 2.7 mph SW4.3 kmh SW 5.4 mph8.7 kmh 29.83 in1010.2 mb 0.00 in0.0 mm 0.00 in0.0 mm 0.00 in0.0 mm
10:38 PM 67.6°F19.8°C 62.2°F16.8°C 83% 2.7 mph SSW4.3 kmh SSW 5.4 mph8.7 kmh 29.83 in1010.2 mb 0.00 in0.0 mm 0.00 in0.0 mm 0.00 in0.0 mm
10:43 PM 67.5°F19.7°C 62.1°F16.7°C 83% 3.6 mph WSW5.8 kmh WSW 7.4 mph11.9 kmh 29.83 in1010.2 mb 0.00 in0.0 mm 0.00 in0.0 mm 0.00 in0.0 mm
10:48 PM 67.5°F19.7°C 62.4°F16.9°C 84% 1.8 mph SW2.9 kmh SW 5.4 mph8.7 kmh 29.83 in1010.2 mb 0.00 in0.0 mm 0.00 in0.0 mm 0.00 in0.0 mm
10:53 PM 67.5°F19.7°C 62.4°F16.9°C 84% 4.5 mph WSW7.2 kmh WSW 6.3 mph10.1 kmh 29.83 in1010.2 mb 0.00 in0.0 mm 0.00 in0.0 mm 0.00 in0.0 mm
10:58 PM 67.5°F19.7°C 62.4°F16.9°C 84% 1.8 mph W2.9 kmh W 6.3 mph10.1 kmh 29.83 in1010.2 mb 0.00 in0.0 mm 0.00 in0.0 mm 0.00 in0.0 mm
11:03 PM 67.5°F19.7°C 62.4°F16.9°C 84% 2.0 mph SW3.2 kmh SW 6.3 mph10.1 kmh 29.83 in1010.2 mb 0.00 in0.0 mm 0.00 in0.0 mm 0.00 in0.0 mm
11:08 PM 67.5°F19.7°C 62.4°F16.9°C 84% 0.9 mph SSW1.4 kmh SSW 5.4 mph8.7 kmh 29.83 in1010.2 mb 0.00 in0.0 mm 0.00 in0.0 mm 0.00 in0.0 mm
11:13 PM 67.5°F19.7°C 62.4°F16.9°C 84% 0.9 mph SSW1.4 kmh SSW 4.3 mph6.9 kmh 29.83 in1010.2 mb 0.00 in0.0 mm 0.00 in0.0 mm 0.00 in0.0 mm
11:18 PM 67.5°F19.7°C 62.1°F16.7°C 83% 0.9 mph SW1.4 kmh SW 3.1 mph5.0 kmh 29.84 in1010.5 mb 0.00 in0.0 mm 0.00 in0.0 mm 0.00 in0.0 mm
11:23 PM 67.5°F19.7°C 62.1°F16.7°C 83% 2.2 mph SW3.5 kmh SW 6.3 mph10.1 kmh 29.84 in1010.5 mb 0.00 in0.0 mm 0.00 in0.0 mm 0.00 in0.0 mm
11:28 PM 67.5°F19.7°C 62.1°F16.7°C 83% 2.2 mph SW3.5 kmh SW 5.4 mph8.7 kmh 29.84 in1010.5 mb 0.00 in0.0 mm 0.00 in0.0 mm 0.00 in0.0 mm
11:33 PM 67.5°F19.7°C 62.1°F16.7°C 83% 3.1 mph WSW5.0 kmh WSW 5.4 mph8.7 kmh 29.84 in1010.5 mb 0.00 in0.0 mm 0.00 in0.0 mm 0.00 in0.0 mm
11:38 PM 67.5°F19.7°C 62.1°F16.7°C 83% 3.1 mph S5.0 kmh S 5.4 mph8.7 kmh 29.84 in1010.5 mb 0.00 in0.0 mm 0.00 in0.0 mm 0.00 in0.0 mm
11:43 PM 67.5°F19.7°C 62.1°F16.7°C 83% 2.0 mph SW3.2 kmh SW 4.3 mph6.9 kmh 29.83 in1010.2 mb 0.00 in0.0 mm 0.00 in0.0 mm 0.00 in0.0 mm
11:48 PM 67.5°F19.7°C 62.1°F16.7°C 83% 2.2 mph WSW3.5 kmh WSW 4.3 mph6.9 kmh 29.84 in1010.5 mb 0.00 in0.0 mm 0.00 in0.0 mm 0.00 in0.0 mm
11:53 PM 67.5°F19.7°C 62.1°F16.7°C 83% 1.1 mph SSW1.8 kmh SSW 4.3 mph6.9 kmh 29.84 in1010.5 mb 0.00 in0.0 mm 0.00 in0.0 mm 0.00 in0.0 mm
11:58 PM 67.5°F19.7°C 62.1°F16.7°C 83% 2.2 mph WSW3.5 kmh WSW 5.4 mph8.7 kmh 29.83 in1010.2 mb 0.00 in0.0 mm 0.00 in0.0 mm 0.00 in0.0 mm